Time;durP1;ratioP1;P1;durP2;ratioP2;P2;SDS_P1;SDS_P2;PMS_P1;PMS_P2;Temp;Humidity;BMP_temperature;BMP_pressure;BME280_temperature;BME280_humidity;BME280_pressure;Samples;Min_cycle;Max_cycle;Signal;HPM_P1;HPM_P2
2022/10/22 00:01:32;;;;;;;0.80;0.80;;;21.80;72.20;;;;;;4950803;28;20105;-11
2022/10/22 00:03:57;;;;;;;1.27;1.00;;;21.80;72.20;;;;;;4954120;28;20046;-11
2022/10/22 00:06:23;;;;;;;1.27;0.95;;;21.70;72.20;;;;;;4955145;28;20074;-20
2022/10/22 00:08:48;;;;;;;1.10;1.00;;;21.70;73.00;;;;;;4949512;28;20039;-11
2022/10/22 00:11:15;;;;;;;2.75;0.95;;;21.80;72.10;;;;;;4946897;28;20178;-12
2022/10/22 00:13:41;;;;;;;1.10;1.00;;;21.70;72.10;;;;;;4956723;28;20176;-11
2022/10/22 00:16:06;;;;;;;1.08;0.95;;;21.70;72.10;;;;;;4956175;28;20498;-11
2022/10/22 00:18:32;;;;;;;1.10;0.98;;;21.70;72.20;;;;;;4953064;28;20046;-11
2022/10/22 00:20:57;;;;;;;1.40;0.80;;;21.70;72.20;;;;;;4952310;28;20066;-11
2022/10/22 00:23:23;;;;;;;1.80;1.00;;;21.70;71.90;;;;;;4955049;28;20042;-11
2022/10/22 00:25:48;;;;;;;1.20;1.10;;;21.70;71.90;;;;;;4957680;28;20143;-10
2022/10/22 00:28:14;;;;;;;1.48;1.02;;;21.70;71.90;;;;;;4950694;28;20065;-11
2022/10/22 00:30:40;;;;;;;1.10;0.82;;;21.70;71.90;;;;;;4952611;28;20047;-11
2022/10/22 00:33:05;;;;;;;0.95;0.68;;;21.70;71.70;;;;;;4949571;28;20097;-11
2022/10/22 00:35:31;;;;;;;0.93;0.70;;;21.70;71.80;;;;;;4952989;28;20106;-11
2022/10/22 00:37:57;;;;;;;1.02;1.02;;;21.70;71.80;;;;;;4955860;28;20043;-11
2022/10/22 00:40:22;;;;;;;1.13;0.98;;;21.70;71.90;;;;;;4958312;28;20290;-11
2022/10/22 00:42:48;;;;;;;1.08;0.73;;;21.70;71.80;;;;;;4956558;28;20039;-11
2022/10/22 00:45:20;;;;;;;1.48;0.80;;;21.70;71.90;;;;;;4951561;28;20031;-11
2022/10/22 00:48:04;;;;;;;1.08;0.70;;;21.70;71.70;;;;;;4983876;28;20047;-11
2022/10/22 00:50:34;;;;;;;0.90;0.60;;;21.70;71.60;;;;;;4957547;28;20078;-12
2022/10/22 00:53:01;;;;;;;0.82;0.65;;;21.70;71.70;;;;;;4956555;28;20461;-11
2022/10/22 00:55:27;;;;;;;0.77;0.60;;;21.70;71.70;;;;;;4953819;28;20039;-11
2022/10/22 00:57:53;;;;;;;0.65;0.65;;;21.60;71.70;;;;;;4971874;28;20556;-11
2022/10/22 01:00:19;;;;;;;1.30;0.70;;;21.60;71.70;;;;;;4953816;28;20043;-11
2022/10/22 01:02:44;;;;;;;0.90;0.70;;;21.70;71.70;;;;;;4954231;28;20055;-12
2022/10/22 01:05:10;;;;;;;1.00;0.85;;;21.60;71.70;;;;;;4968024;28;20042;-11
2022/10/22 01:07:41;;;;;;;0.85;0.50;;;21.60;71.80;;;;;;4952760;28;20168;-11
2022/10/22 01:10:12;;;;;;;0.68;0.60;;;21.60;71.70;;;;;;4953955;28;20539;-11
2022/10/22 01:12:49;;;;;;;1.38;0.65;;;21.60;71.90;;;;;;4959181;28;20122;-11
2022/10/22 01:15:27;;;;;;;1.30;0.90;;;21.60;71.70;;;;;;4957190;28;20046;-11
2022/10/22 01:18:05;;;;;;;1.10;0.77;;;21.60;71.90;;;;;;4944863;28;20590;-11
2022/10/22 01:20:45;;;;;;;1.23;0.90;;;21.60;72.70;;;;;;4961577;28;20079;-11
2022/10/22 01:23:29;;;;;;;0.82;0.70;;;21.60;71.90;;;;;;4955134;28;20043;-19
2022/10/22 01:26:06;;;;;;;0.93;0.47;;;21.60;71.90;;;;;;4956746;28;20043;-11
2022/10/22 01:28:49;;;;;;;0.98;0.68;;;21.60;71.80;;;;;;4950828;28;20872;-20
2022/10/22 01:31:15;;;;;;;0.80;0.63;;;21.60;71.90;;;;;;4985475;28;20055;-16
2022/10/22 01:33:41;;;;;;;0.80;0.50;;;21.60;72.70;;;;;;4958014;28;20043;-11
2022/10/22 01:36:06;;;;;;;0.93;0.40;;;21.60;71.80;;;;;;4937966;28;20075;-16
2022/10/22 01:38:32;;;;;;;1.23;0.80;;;21.60;71.80;;;;;;4970549;28;20047;-11
2022/10/22 01:40:58;;;;;;;0.77;0.70;;;21.60;71.80;;;;;;4952867;28;20502;-11
2022/10/22 01:43:23;;;;;;;0.88;0.60;;;21.60;71.70;;;;;;4951843;28;20548;-10
2022/10/22 01:45:55;;;;;;;0.70;0.50;;;21.60;71.60;;;;;;4954657;28;20050;-11
2022/10/22 01:48:43;;;;;;;0.50;0.50;;;21.60;71.80;;;;;;4952090;28;20039;-11
2022/10/22 01:51:19;;;;;;;0.75;0.63;;;21.60;71.70;;;;;;4969207;28;20051;-11
2022/10/22 01:53:59;;;;;;;0.73;0.60;;;21.60;71.70;;;;;;4958411;28;20050;-11
2022/10/22 01:56:56;;;;;;;5.57;0.95;;;21.60;71.60;;;;;;4962154;28;20047;-11
2022/10/22 01:59:40;;;;;;;0.82;0.60;;;21.60;71.50;;;;;;4961219;28;20068;-11
2022/10/22 02:02:24;;;;;;;;;;;21.60;71.60;;;;;;4971335;28;20113;-12
2022/10/22 02:05:04;;;;;;;0.90;0.63;;;21.60;71.70;;;;;;4954115;28;20011;-11
2022/10/22 02:07:33;;;;;;;1.02;0.73;;;21.60;71.40;;;;;;4936945;28;20105;-11
2022/10/22 02:09:59;;;;;;;1.95;0.52;;;21.60;71.50;;;;;;4956899;28;20098;-11
2022/10/22 02:12:24;;;;;;;1.23;0.55;;;21.60;71.60;;;;;;4958603;28;20043;-11
2022/10/22 02:14:50;;;;;;;1.23;0.55;;;21.60;71.50;;;;;;4956230;28;20042;-11
2022/10/22 02:17:18;;;;;;;0.75;0.70;;;21.70;71.50;;;;;;4970468;28;20043;-15
2022/10/22 02:19:48;;;;;;;0.90;0.70;;;21.70;71.30;;;;;;4984442;28;20079;-10
2022/10/22 02:22:14;;;;;;;0.73;0.68;;;21.70;71.40;;;;;;4955822;28;20533;-11
2022/10/22 02:24:39;;;;;;;0.80;0.80;;;21.60;71.30;;;;;;4958558;28;20046;-11
2022/10/22 02:27:05;;;;;;;0.93;0.60;;;21.70;71.10;;;;;;4955530;28;20073;-12
2022/10/22 02:29:42;;;;;;;0.90;0.75;;;21.70;71.10;;;;;;4956996;28;20051;-11
2022/10/22 02:32:08;;;;;;;0.70;0.65;;;21.60;71.30;;;;;;4957677;28;20399;-11
2022/10/22 02:34:34;;;;;;;1.10;0.70;;;21.70;71.10;;;;;;4970577;28;20146;-13
2022/10/22 02:37:00;;;;;;;1.20;0.60;;;21.60;71.10;;;;;;4954759;28;20482;-11
2022/10/22 02:39:26;;;;;;;1.05;0.75;;;21.70;71.10;;;;;;4956868;28;20058;-11
2022/10/22 02:41:51;;;;;;;0.98;0.80;;;21.70;71.20;;;;;;4966930;28;20438;-11
2022/10/22 02:44:20;;;;;;;0.70;0.70;;;21.70;71.20;;;;;;4959263;28;20054;-11
2022/10/22 02:46:45;;;;;;;1.15;0.70;;;21.60;71.10;;;;;;4957259;28;20050;-11
2022/10/22 02:49:11;;;;;;;0.70;0.70;;;21.60;71.10;;;;;;4985845;28;20050;-20
2022/10/22 02:51:36;;;;;;;0.50;0.40;;;21.70;71.10;;;;;;4957998;28;20047;-20
2022/10/22 02:54:02;;;;;;;0.98;0.52;;;21.70;71.10;;;;;;4958579;28;20514;-11
2022/10/22 02:56:28;;;;;;;2.20;0.98;;;21.70;71.00;;;;;;4957884;28;20395;-11
2022/10/22 02:58:53;;;;;;;1.35;0.60;;;21.70;71.00;;;;;;4962075;28;20521;-11
2022/10/22 03:01:19;;;;;;;0.77;0.70;;;21.60;71.00;;;;;;4957331;28;20039;-17
2022/10/22 03:03:44;;;;;;;1.02;0.68;;;21.60;71.70;;;;;;4959956;28;20057;-11
2022/10/22 03:06:10;;;;;;;1.13;0.50;;;21.60;71.00;;;;;;4959711;28;20082;-11
2022/10/22 03:08:35;;;;;;;0.63;0.60;;;21.60;71.00;;;;;;4950588;28;20044;-15
2022/10/22 03:11:01;;;;;;;0.50;0.40;;;21.60;71.10;;;;;;4958255;28;20549;-11
2022/10/22 03:13:27;;;;;;;0.98;0.60;;;21.70;71.00;;;;;;4960668;28;20050;-11
2022/10/22 03:15:53;;;;;;;0.80;0.50;;;21.60;70.70;;;;;;4959329;28;20525;-11
2022/10/22 03:18:18;;;;;;;1.20;0.40;;;21.60;71.00;;;;;;4961141;28;20051;-11
2022/10/22 03:20:44;;;;;;;0.52;0.40;;;21.60;70.90;;;;;;4952738;28;21017;-11
2022/10/22 03:23:11;;;;;;;0.95;0.60;;;21.50;71.90;;;;;;4955935;28;20109;-11
2022/10/22 03:25:37;;;;;;;0.75;0.50;;;21.60;70.90;;;;;;4987806;28;20055;-11
2022/10/22 03:28:05;;;;;;;0.82;0.50;;;21.60;70.90;;;;;;4970668;28;20101;-11
2022/10/22 03:30:31;;;;;;;1.02;0.60;;;21.50;71.10;;;;;;4954240;28;20046;-12
2022/10/22 03:32:56;;;;;;;0.93;0.50;;;21.60;71.10;;;;;;4955495;28;20082;-18
2022/10/22 03:35:22;;;;;;;1.00;0.68;;;21.60;70.80;;;;;;4957850;28;20046;-11
2022/10/22 03:37:47;;;;;;;1.63;0.50;;;21.60;70.90;;;;;;4953507;28;20039;-11
2022/10/22 03:40:13;;;;;;;0.45;0.43;;;21.60;71.00;;;;;;4955144;28;20079;-11
2022/10/22 03:42:40;;;;;;;1.17;0.70;;;21.60;70.80;;;;;;4949610;28;20513;-15
2022/10/22 03:45:06;;;;;;;0.80;0.57;;;21.60;70.80;;;;;;4955722;28;20062;-13
2022/10/22 03:47:32;;;;;;;2.03;0.60;;;21.60;70.90;;;;;;4959669;28;20035;-11
2022/10/22 03:49:57;;;;;;;1.00;0.70;;;21.60;71.70;;;;;;4956311;28;20058;-10
2022/10/22 03:52:23;;;;;;;0.70;0.70;;;21.50;71.20;;;;;;4956440;28;20506;-11
2022/10/22 03:54:48;;;;;;;0.77;0.60;;;21.60;70.90;;;;;;4952562;28;20055;-11
2022/10/22 03:57:14;;;;;;;0.52;0.38;;;21.60;70.90;;;;;;4957511;28;20054;-11
2022/10/22 03:59:41;;;;;;;0.68;0.60;;;21.70;70.80;;;;;;4955901;28;20055;-11
2022/10/22 04:02:07;;;;;;;0.40;0.30;;;21.70;70.80;;;;;;4953443;28;20050;-11
2022/10/22 04:04:33;;;;;;;0.55;0.55;;;21.70;70.80;;;;;;4953901;28;20038;-11
2022/10/22 04:06:58;;;;;;;0.63;0.40;;;21.60;70.50;;;;;;4958283;28;20506;-11
2022/10/22 04:09:24;;;;;;;1.08;0.63;;;21.60;70.60;;;;;;4957998;28;20046;-10
2022/10/22 04:11:49;;;;;;;1.13;0.57;;;21.60;70.50;;;;;;4954999;28;20047;-11
2022/10/22 04:14:15;;;;;;;0.63;0.50;;;21.60;70.80;;;;;;4958434;28;20046;-15
2022/10/22 04:16:41;;;;;;;0.65;0.45;;;21.60;70.80;;;;;;4955315;28;20078;-11
2022/10/22 04:19:06;;;;;;;0.70;0.50;;;21.60;70.80;;;;;;4958126;28;20061;-11
2022/10/22 04:21:32;;;;;;;1.02;0.60;;;21.60;70.90;;;;;;4955699;28;20462;-11
2022/10/22 04:23:58;;;;;;;0.68;0.47;;;21.60;70.70;;;;;;4959265;28;20082;-10
2022/10/22 04:26:23;;;;;;;0.95;0.57;;;21.60;70.70;;;;;;4956150;28;20051;-12
2022/10/22 04:28:49;;;;;;;1.40;0.45;;;21.70;70.70;;;;;;4956541;28;20039;-12
2022/10/22 04:31:17;;;;;;;1.48;0.73;;;21.70;70.50;;;;;;4953825;28;20050;-11
2022/10/22 04:33:42;;;;;;;0.60;0.57;;;21.70;70.70;;;;;;4954198;28;20050;-11
2022/10/22 04:36:10;;;;;;;0.40;0.40;;;21.60;70.50;;;;;;4955749;28;20043;-11
2022/10/22 04:38:36;;;;;;;0.68;0.60;;;21.70;71.20;;;;;;4948425;28;20038;-11
2022/10/22 04:41:15;;;;;;;0.47;0.32;;;21.70;70.50;;;;;;4957889;28;20046;-11
2022/10/22 04:43:41;;;;;;;0.50;0.50;;;21.70;70.50;;;;;;4954880;28;20474;-11
2022/10/22 04:46:08;;;;;;;0.40;0.40;;;21.60;70.50;;;;;;4960878;28;20035;-11
2022/10/22 04:48:35;;;;;;;1.42;0.70;;;21.60;70.70;;;;;;4951335;28;20044;-11
2022/10/22 04:51:00;;;;;;;0.50;0.35;;;21.60;70.50;;;;;;4946560;28;20046;-11
2022/10/22 04:53:26;;;;;;;0.47;0.30;;;21.60;70.50;;;;;;4950691;28;20786;-11
2022/10/22 04:55:52;;;;;;;0.70;0.70;;;21.60;70.40;;;;;;4953027;28;20043;-11
2022/10/22 04:58:17;;;;;;;0.60;0.57;;;21.60;71.60;;;;;;4952332;28;20438;-11
2022/10/22 05:00:43;;;;;;;0.93;0.30;;;21.60;70.60;;;;;;4953728;28;20054;-11
2022/10/22 05:03:09;;;;;;;0.93;0.80;;;21.70;70.40;;;;;;4967541;28;20050;-11
2022/10/22 05:05:34;;;;;;;1.08;0.43;;;21.70;70.60;;;;;;4954137;28;20580;-11
2022/10/22 05:08:00;;;;;;;0.77;0.40;;;21.70;70.40;;;;;;4947874;28;20050;-11
2022/10/22 05:10:25;;;;;;;0.45;0.30;;;21.70;70.30;;;;;;4949025;28;20129;-11
2022/10/22 05:12:51;;;;;;;0.82;0.40;;;21.60;70.50;;;;;;4948119;28;20043;-12
2022/10/22 05:15:16;;;;;;;1.63;0.55;;;21.60;70.70;;;;;;4958944;28;20469;-11
2022/10/22 05:17:42;;;;;;;1.10;0.45;;;21.60;70.60;;;;;;4952018;28;20051;-11
2022/10/22 05:20:08;;;;;;;1.52;0.47;;;21.60;70.40;;;;;;4944540;28;20051;-11
2022/10/22 05:22:33;;;;;;;1.08;0.40;;;21.60;70.50;;;;;;4948403;28;20043;-23
2022/10/22 05:24:59;;;;;;;1.85;0.60;;;21.60;70.80;;;;;;4951282;28;20101;-22
2022/10/22 05:27:25;;;;;;;0.70;0.60;;;21.60;70.60;;;;;;4949028;28;20046;-11
2022/10/22 05:29:51;;;;;;;0.63;0.47;;;21.60;70.60;;;;;;4960435;28;20043;-12
2022/10/22 05:32:16;;;;;;;1.05;0.40;;;21.60;70.50;;;;;;4956011;28;20051;-11
2022/10/22 05:34:42;;;;;;;0.68;0.60;;;21.60;71.30;;;;;;4955503;28;20047;-12
2022/10/22 05:37:07;;;;;;;0.73;0.30;;;21.60;70.50;;;;;;4963341;28;20062;-11
2022/10/22 05:39:35;;;;;;;0.98;0.40;;;21.60;70.50;;;;;;4952162;28;20093;-11
2022/10/22 05:42:01;;;;;;;0.95;0.40;;;21.60;70.50;;;;;;4955092;28;20159;-11
2022/10/22 05:44:27;;;;;;;1.67;0.40;;;21.60;71.20;;;;;;4964294;28;20061;-11
2022/10/22 05:46:52;;;;;;;0.70;0.50;;;21.60;70.40;;;;;;4976510;28;20035;-11
2022/10/22 05:49:18;;;;;;;0.52;0.40;;;21.60;70.20;;;;;;4962130;28;20070;-11
2022/10/22 05:51:44;;;;;;;0.68;0.40;;;21.60;70.10;;;;;;4956810;28;20255;-11
2022/10/22 05:54:14;;;;;;;0.55;0.30;;;21.60;70.10;;;;;;4952759;28;20051;-11
2022/10/22 05:56:39;;;;;;;0.77;0.45;;;21.60;70.40;;;;;;4941064;28;20051;-11
2022/10/22 05:59:05;;;;;;;0.70;0.40;;;21.60;70.40;;;;;;4951922;28;20138;-15
2022/10/22 06:01:32;;;;;;;0.65;0.45;;;21.60;70.40;;;;;;4954620;28;20456;-11
2022/10/22 06:03:59;;;;;;;0.70;0.45;;;21.60;70.50;;;;;;4956623;28;20051;-11
2022/10/22 06:06:29;;;;;;;1.17;0.60;;;21.60;70.50;;;;;;4957812;28;20043;-11
2022/10/22 06:08:55;;;;;;;0.65;0.60;;;21.50;70.50;;;;;;4965965;28;20081;-11
2022/10/22 06:11:21;;;;;;;1.17;0.40;;;21.60;70.40;;;;;;4952339;28;20058;-16
2022/10/22 06:13:47;;;;;;;0.80;0.63;;;21.60;70.30;;;;;;4953015;28;20061;-11
2022/10/22 06:16:13;;;;;;;0.60;0.40;;;21.60;70.40;;;;;;4957726;28;20038;-11
2022/10/22 06:18:38;;;;;;;0.57;0.50;;;21.60;70.30;;;;;;4955070;28;20125;-11
2022/10/22 06:21:12;;;;;;;0.95;0.75;;;21.60;70.30;;;;;;4956708;28;20134;-13
2022/10/22 06:23:38;;;;;;;2.28;0.60;;;21.50;70.50;;;;;;4952765;28;20398;-17
2022/10/22 06:26:03;;;;;;;0.22;0.22;;;21.60;70.60;;;;;;4952680;28;20046;-11
2022/10/22 06:28:29;;;;;;;0.95;0.60;;;21.50;70.40;;;;;;4954376;28;20031;-11
2022/10/22 06:30:57;;;;;;;0.73;0.32;;;21.60;70.40;;;;;;4948512;28;20117;-11
2022/10/22 06:33:22;;;;;;;0.77;0.30;;;21.60;70.40;;;;;;4950963;28;20051;-11
2022/10/22 06:35:48;;;;;;;0.40;0.40;;;21.60;70.40;;;;;;4957255;28;20050;-23
2022/10/22 06:38:14;;;;;;;0.40;0.20;;;21.60;70.40;;;;;;4956558;28;20046;-24
2022/10/22 06:40:42;;;;;;;0.40;0.35;;;21.60;70.20;;;;;;4954552;28;20031;-25
2022/10/22 06:43:08;;;;;;;0.70;0.50;;;21.60;70.20;;;;;;4954010;28;20130;-22
2022/10/22 06:45:34;;;;;;;1.10;0.50;;;21.60;70.10;;;;;;4951029;28;20779;-22
2022/10/22 06:47:59;;;;;;;1.15;0.73;;;21.60;70.30;;;;;;4953890;28;20070;-24
2022/10/22 06:50:25;;;;;;;0.57;0.40;;;21.60;70.50;;;;;;4950296;28;21055;-21
2022/10/22 06:52:51;;;;;;;0.70;0.40;;;21.60;70.20;;;;;;4950573;28;20059;-21
2022/10/22 06:55:16;;;;;;;0.50;0.40;;;21.60;70.30;;;;;;4950294;28;20039;-21
2022/10/22 06:57:42;;;;;;;0.80;0.40;;;21.60;70.10;;;;;;4951267;28;20514;-21
2022/10/22 07:00:08;;;;;;;0.50;0.45;;;21.70;70.00;;;;;;4953534;28;20028;-21
2022/10/22 07:02:33;;;;;;;0.60;0.40;;;21.60;70.10;;;;;;4955775;28;20135;-25
2022/10/22 07:04:59;;;;;;;0.50;0.30;;;21.50;70.10;;;;;;4953950;28;20127;-22
2022/10/22 07:07:25;;;;;;;1.10;0.68;;;21.50;70.20;;;;;;4952595;28;20050;-22
2022/10/22 07:09:50;;;;;;;3.33;0.40;;;21.50;70.80;;;;;;4955792;28;20047;-22
2022/10/22 07:12:16;;;;;;;0.52;0.40;;;21.50;70.40;;;;;;4953805;28;20047;-22
2022/10/22 07:14:41;;;;;;;1.00;0.43;;;21.50;70.20;;;;;;4948571;28;20043;-21
2022/10/22 07:17:07;;;;;;;0.77;0.47;;;21.60;70.10;;;;;;4955142;28;20047;-21
2022/10/22 07:19:33;;;;;;;0.50;0.40;;;21.60;70.30;;;;;;4960432;28;20071;-34
2022/10/22 07:21:58;;;;;;;0.80;0.57;;;21.60;70.00;;;;;;4956112;28;20398;-30
2022/10/22 07:24:24;;;;;;;1.50;0.52;;;21.50;70.00;;;;;;4960315;28;20061;-21
2022/10/22 07:26:50;;;;;;;0.60;0.40;;;21.50;70.20;;;;;;4958127;28;20157;-24
2022/10/22 07:29:15;;;;;;;0.55;0.35;;;21.50;70.20;;;;;;4961592;28;20430;-21
2022/10/22 07:31:41;;;;;;;0.35;0.30;;;21.40;70.30;;;;;;4955218;28;20070;-21
2022/10/22 07:34:07;;;;;;;1.27;0.40;;;21.40;71.10;;;;;;4961128;28;20126;-21
2022/10/22 07:36:32;;;;;;;0.75;0.30;;;21.30;70.40;;;;;;4957537;28;21106;-20
2022/10/22 07:38:58;;;;;;;0.65;0.40;;;21.30;70.50;;;;;;4955186;28;20028;-22
2022/10/22 07:41:24;;;;;;;0.50;0.40;;;21.40;70.40;;;;;;4956876;28;20042;-21
2022/10/22 07:43:50;;;;;;;1.25;0.40;;;21.50;70.40;;;;;;4955430;28;20043;-25
2022/10/22 07:46:15;;;;;;;0.43;0.40;;;21.40;70.20;;;;;;4957090;28;20044;-24
2022/10/22 07:48:41;;;;;;;0.60;0.43;;;21.40;70.30;;;;;;4944784;28;20070;-22
2022/10/22 07:51:06;;;;;;;0.85;0.47;;;21.40;70.40;;;;;;4955384;28;20107;-21
2022/10/22 07:53:32;;;;;;;0.35;0.22;;;21.40;70.70;;;;;;4968371;28;20046;-18
2022/10/22 07:55:58;;;;;;;0.85;0.40;;;21.50;70.70;;;;;;4957470;28;20038;-29
2022/10/22 07:58:23;;;;;;;1.80;0.40;;;21.50;71.40;;;;;;4950700;28;20142;-21
2022/10/22 08:00:49;;;;;;;0.55;0.47;;;21.70;70.20;;;;;;4953422;28;20125;-25
2022/10/22 08:03:15;;;;;;;1.30;0.50;;;21.60;70.30;;;;;;4954971;28;20055;-28
2022/10/22 08:05:44;;;;;;;1.75;0.52;;;21.60;70.50;;;;;;4953264;28;20051;-27
2022/10/22 08:08:10;;;;;;;0.50;0.30;;;21.60;70.60;;;;;;4607652;28;9999689;-24
2022/10/22 08:10:36;;;;;;;0.88;0.45;;;21.50;71.10;;;;;;4959334;28;20115;-23
2022/10/22 08:13:02;;;;;;;0.50;0.40;;;21.60;70.80;;;;;;4955768;28;20044;-21
2022/10/22 08:15:27;;;;;;;0.57;0.40;;;21.50;71.30;;;;;;4953000;28;20054;-22
2022/10/22 08:17:53;;;;;;;1.95;0.52;;;21.40;71.40;;;;;;4956094;28;20137;-24
2022/10/22 08:20:18;;;;;;;0.40;0.30;;;21.60;70.90;;;;;;4956144;28;20464;-33
2022/10/22 08:22:44;;;;;;;0.57;0.40;;;21.70;70.30;;;;;;4956915;28;20039;-22
2022/10/22 08:25:10;;;;;;;0.82;0.50;;;21.70;70.00;;;;;;4952214;28;20046;-23
2022/10/22 08:27:35;;;;;;;1.42;0.50;;;21.90;69.60;;;;;;4948573;28;20043;-22
2022/10/22 08:30:01;;;;;;;0.95;0.40;;;21.90;69.40;;;;;;4952046;28;20042;-21
2022/10/22 08:32:27;;;;;;;0.63;0.43;;;21.90;69.20;;;;;;4961096;28;20051;-24
2022/10/22 08:34:52;;;;;;;0.77;0.43;;;21.80;69.50;;;;;;4958736;28;20039;-22
2022/10/22 08:37:18;;;;;;;0.70;0.40;;;21.90;69.30;;;;;;4951215;28;20794;-25
2022/10/22 08:39:44;;;;;;;0.80;0.47;;;21.90;69.50;;;;;;4951268;28;20075;-23
2022/10/22 08:42:28;;;;;;;0.85;0.40;;;21.90;69.40;;;;;;4952814;28;20046;-21
2022/10/22 08:45:06;;;;;;;1.08;0.50;;;21.70;69.80;;;;;;4955062;28;20054;-23
2022/10/22 08:47:58;;;;;;;0.50;0.30;;;21.80;69.80;;;;;;4939350;28;20067;-22
2022/10/22 08:50:29;;;;;;;0.90;0.30;;;21.70;69.70;;;;;;4953570;28;20044;-25
2022/10/22 08:52:56;;;;;;;0.57;0.30;;;21.80;69.60;;;;;;4973796;28;21089;-24
2022/10/22 08:55:22;;;;;;;0.47;0.47;;;21.70;69.70;;;;;;4955103;28;20039;-29
2022/10/22 08:58:05;;;;;;;0.40;0.38;;;21.80;69.50;;;;;;4957581;28;20046;-25
2022/10/22 09:00:45;;;;;;;0.60;0.25;;;21.80;69.50;;;;;;4955283;28;20111;-22
2022/10/22 09:03:13;;;;;;;0.63;0.35;;;21.80;69.60;;;;;;4983144;28;20545;-29
2022/10/22 09:05:50;;;;;;;0.32;0.32;;;21.80;69.60;;;;;;4607187;28;9999764;-24
2022/10/22 09:08:16;;;;;;;0.52;0.45;;;21.80;69.80;;;;;;4948758;28;20126;-25
2022/10/22 09:10:47;;;;;;;1.27;0.52;;;21.60;70.80;;;;;;4948888;28;20051;-33
2022/10/22 09:13:15;;;;;;;0.65;0.50;;;21.50;72.10;;;;;;4948795;28;20046;-21
2022/10/22 09:15:40;;;;;;;0.98;0.50;;;21.50;72.70;;;;;;4972534;28;20052;-21
2022/10/22 09:18:30;;;;;;;0.68;0.32;;;21.50;72.40;;;;;;4952315;28;20737;-21
2022/10/22 09:21:25;;;;;;;1.63;0.47;;;21.60;72.40;;;;;;4965597;28;20077;-28
2022/10/22 09:24:15;;;;;;;0.60;0.45;;;21.60;71.90;;;;;;4940879;28;20031;-23
2022/10/22 09:26:41;;;;;;;0.68;0.32;;;21.70;71.80;;;;;;4954812;28;20047;-26
2022/10/22 09:29:09;;;;;;;1.25;0.60;;;21.60;71.80;;;;;;4957587;28;20247;-30
2022/10/22 09:31:35;;;;;;;1.17;0.40;;;21.60;71.70;;;;;;4952651;28;20046;-35
2022/10/22 09:34:04;;;;;;;0.77;0.40;;;21.60;71.50;;;;;;4958498;28;20054;-27
2022/10/22 09:36:31;;;;;;;0.60;0.30;;;21.70;71.20;;;;;;4950751;28;20062;-24
2022/10/22 09:38:56;;;;;;;0.80;0.47;;;21.70;70.90;;;;;;4953541;28;20075;-26
2022/10/22 09:41:28;;;;;;;0.35;0.30;;;21.70;70.90;;;;;;4954000;28;20051;-25
2022/10/22 09:43:54;;;;;;;1.77;0.60;;;21.60;71.30;;;;;;4950101;28;20581;-25
2022/10/22 09:46:21;;;;;;;0.88;0.57;;;21.60;71.30;;;;;;4957406;28;20051;-29
2022/10/22 09:48:54;;;;;;;1.08;0.50;;;21.60;71.40;;;;;;4955444;28;20636;-25
2022/10/22 09:51:21;;;;;;;0.30;0.30;;;21.60;71.40;;;;;;4965608;28;20046;-31
2022/10/22 09:53:58;;;;;;;1.40;0.52;;;21.60;71.70;;;;;;4953501;28;20059;-29
2022/10/22 09:56:31;;;;;;;1.08;0.50;;;21.60;71.50;;;;;;4952549;28;20051;-22
2022/10/22 09:58:56;;;;;;;0.63;0.50;;;21.70;71.50;;;;;;4952820;28;20419;-28
2022/10/22 10:01:27;;;;;;;0.70;0.55;;;21.70;71.30;;;;;;4953058;28;20078;-26
2022/10/22 10:03:52;;;;;;;0.90;0.57;;;21.70;72.00;;;;;;4954307;28;20047;-26
2022/10/22 10:06:21;;;;;;;1.25;0.55;;;21.90;70.70;;;;;;4953194;28;20668;-25
2022/10/22 10:08:47;;;;;;;0.60;0.47;;;21.80;71.00;;;;;;4956911;28;20042;-24
2022/10/22 10:11:25;;;;;;;0.77;0.60;;;21.70;71.30;;;;;;4958746;28;20047;-21
2022/10/22 10:14:08;;;;;;;0.63;0.38;;;21.70;71.30;;;;;;4961367;28;20094;-26
2022/10/22 10:17:01;;;;;;;1.38;0.60;;;21.70;71.40;;;;;;4952696;28;20047;-27
2022/10/22 10:19:58;;;;;;;0.98;0.35;;;21.70;71.50;;;;;;4983866;28;20446;-22
2022/10/22 10:22:54;;;;;;;0.60;0.47;;;21.70;71.20;;;;;;4944938;28;20053;-23
2022/10/22 10:25:44;;;;;;;0.65;0.40;;;21.70;71.50;;;;;;4957988;28;20074;-31
2022/10/22 10:28:19;;;;;;;0.98;0.45;;;21.70;71.50;;;;;;4954509;28;20596;-21
2022/10/22 10:31:03;;;;;;;1.05;0.40;;;21.70;71.50;;;;;;4956700;28;20046;-21
2022/10/22 10:33:35;;;;;;;;;;;21.70;71.30;;;;;;4971312;28;20505;-21
2022/10/22 10:36:03;;;;;;;0.40;0.35;;;21.80;71.30;;;;;;4954180;28;20072;-24
2022/10/22 10:38:32;;;;;;;1.63;0.47;;;21.80;71.10;;;;;;4960219;28;20123;-27
2022/10/22 10:41:09;;;;;;;0.68;0.40;;;21.80;71.00;;;;;;4970258;28;20047;-24
2022/10/22 10:44:10;;;;;;;0.50;0.50;;;21.80;71.30;;;;;;4958825;28;20079;-21
2022/10/22 10:46:41;;;;;;;0.43;0.43;;;21.70;71.10;;;;;;4926193;28;20651;-23
2022/10/22 10:49:09;;;;;;;1.73;0.38;;;21.70;71.00;;;;;;4949987;28;20077;-22
2022/10/22 10:51:37;;;;;;;0.40;0.40;;;21.70;71.60;;;;;;4945733;28;20130;-24
2022/10/22 10:54:14;;;;;;;0.82;0.40;;;21.90;70.70;;;;;;4953500;28;20047;-24
2022/10/22 10:56:53;;;;;;;0.80;0.40;;;21.80;71.00;;;;;;4958538;28;20050;-24
2022/10/22 10:59:53;;;;;;;0.30;0.30;;;21.80;71.40;;;;;;4969319;28;20525;-23
2022/10/22 11:02:56;;;;;;;0.70;0.50;;;21.80;71.70;;;;;;4958980;28;20038;-26
2022/10/22 11:05:39;;;;;;;0.80;0.40;;;21.80;72.00;;;;;;4953152;28;20059;-28
2022/10/22 11:08:04;;;;;;;0.60;0.40;;;21.80;71.60;;;;;;4950644;28;20081;-24
2022/10/22 11:10:38;;;;;;;0.57;0.38;;;22.00;71.40;;;;;;4952164;28;20067;-23
2022/10/22 11:13:23;;;;;;;0.57;0.47;;;22.10;71.20;;;;;;4967735;28;20051;-22
2022/10/22 11:15:58;;;;;;;0.98;0.50;;;21.90;71.70;;;;;;4949701;28;20089;-28
2022/10/22 11:18:28;;;;;;;0.77;0.50;;;21.90;71.90;;;;;;4950317;28;20055;-22
2022/10/22 11:21:05;;;;;;;0.88;0.55;;;21.90;72.20;;;;;;4968070;28;20491;-21
2022/10/22 11:23:37;;;;;;;0.90;0.50;;;21.90;71.70;;;;;;4978875;28;20411;-23
2022/10/22 11:26:04;;;;;;;0.88;0.40;;;21.90;71.90;;;;;;4972171;28;20057;-22
2022/10/22 11:28:37;;;;;;;0.55;0.35;;;21.90;71.80;;;;;;4968830;28;20043;-23
2022/10/22 11:31:09;;;;;;;1.02;0.50;;;22.00;71.00;;;;;;4948034;28;20125;-24
2022/10/22 11:33:53;;;;;;;0.73;0.60;;;22.00;71.40;;;;;;4970351;28;20070;-23
2022/10/22 11:36:21;;;;;;;1.40;0.60;;;22.00;71.40;;;;;;4959339;28;20522;-24
2022/10/22 11:38:46;;;;;;;1.40;0.60;;;22.00;71.70;;;;;;4960921;28;20044;-22
2022/10/22 11:41:14;;;;;;;0.47;0.47;;;22.00;71.60;;;;;;4965236;28;20070;-21
2022/10/22 11:43:55;;;;;;;0.65;0.45;;;22.00;71.30;;;;;;4950771;28;20117;-22
2022/10/22 11:46:20;;;;;;;1.08;0.70;;;22.10;71.20;;;;;;4942863;28;20078;-23
2022/10/22 11:49:08;;;;;;;0.95;0.50;;;22.10;70.90;;;;;;4958451;28;20083;-19
2022/10/22 11:51:35;;;;;;;0.52;0.45;;;22.10;71.40;;;;;;4958319;28;20147;-21
2022/10/22 11:54:28;;;;;;;0.88;0.43;;;22.20;70.80;;;;;;4953677;28;20046;-22
2022/10/22 11:57:13;;;;;;;0.85;0.45;;;22.20;70.50;;;;;;4950695;28;20054;-21
2022/10/22 11:59:46;;;;;;;1.70;0.60;;;22.30;70.40;;;;;;4949469;28;20126;-21
2022/10/22 12:02:27;;;;;;;1.10;0.40;;;22.40;69.70;;;;;;4947593;28;20046;-22
2022/10/22 12:04:54;;;;;;;0.73;0.40;;;22.70;69.20;;;;;;4950862;28;20102;-21
2022/10/22 12:07:33;;;;;;;0.60;0.43;;;22.70;68.80;;;;;;4954066;28;20039;-24
2022/10/22 12:09:59;;;;;;;1.35;0.40;;;22.60;69.30;;;;;;4953563;28;20145;-21
2022/10/22 12:12:27;;;;;;;0.95;0.50;;;22.60;69.10;;;;;;4952074;28;20062;-22
2022/10/22 12:14:55;;;;;;;0.52;0.40;;;22.50;70.30;;;;;;4970342;28;20050;-21
2022/10/22 12:17:21;;;;;;;1.02;0.40;;;22.30;70.10;;;;;;4965101;28;20049;-24
2022/10/22 12:20:00;;;;;;;1.42;0.73;;;22.40;70.10;;;;;;4949235;28;20043;-25
2022/10/22 12:22:30;;;;;;;1.00;0.50;;;22.70;68.80;;;;;;4950652;28;20039;-22
2022/10/22 12:25:00;;;;;;;2.05;0.30;;;22.50;69.40;;;;;;4946175;28;20043;-21
2022/10/22 12:27:36;;;;;;;0.75;0.50;;;22.40;69.90;;;;;;4955423;28;20046;-22
2022/10/22 12:30:16;;;;;;;0.52;0.50;;;22.30;70.30;;;;;;4967521;28;20490;-21
2022/10/22 12:32:41;;;;;;;1.48;0.50;;;22.20;70.60;;;;;;4952026;28;20055;-23
2022/10/22 12:35:23;;;;;;;2.90;0.60;;;22.20;70.70;;;;;;4952487;28;20040;-34
2022/10/22 12:38:16;;;;;;;0.45;0.43;;;22.20;70.70;;;;;;4955127;28;20055;-38
2022/10/22 12:40:42;;;;;;;0.60;0.60;;;22.20;70.60;;;;;;4954156;28;20043;-37
2022/10/22 12:43:18;;;;;;;0.30;0.22;;;22.10;70.60;;;;;;4955237;28;21445;-38
2022/10/22 12:45:47;;;;;;;0.60;0.40;;;22.10;70.50;;;;;;4953394;28;20106;-38
2022/10/22 12:48:18;;;;;;;2.28;0.73;;;22.20;70.60;;;;;;4971958;28;20034;-38
2022/10/22 12:50:46;;;;;;;0.52;0.40;;;22.20;70.60;;;;;;4960372;28;20046;-35
2022/10/22 12:53:36;;;;;;;0.65;0.50;;;22.10;70.70;;;;;;4953028;28;20070;-34
2022/10/22 12:56:06;;;;;;;0.47;0.30;;;22.10;70.80;;;;;;4953535;28;20043;-36
2022/10/22 12:58:38;;;;;;;0.80;0.60;;;22.10;70.90;;;;;;4959325;28;20498;-39
2022/10/22 13:01:04;;;;;;;1.17;0.40;;;22.10;70.90;;;;;;4957047;28;20046;-37